sensor_id;sensor_type;location;lat;lon;timestamp;pressure;altitude;pressure_sealevel;temperature;humidity
45275;BME280;31019;43.780;25.948;2024-01-11T00:00:40;102513.50;;;-9.48;100.00
45275;BME280;31019;43.780;25.948;2024-01-11T00:03:10;102512.72;;;-9.51;100.00
45275;BME280;31019;43.780;25.948;2024-01-11T00:05:37;102513.28;;;-9.38;100.00
45275;BME280;31019;43.780;25.948;2024-01-11T00:08:05;102512.69;;;-9.50;100.00
45275;BME280;31019;43.780;25.948;2024-01-11T00:10:32;102515.63;;;-9.66;100.00
45275;BME280;31019;43.780;25.948;2024-01-11T00:12:58;102508.47;;;-9.54;100.00
45275;BME280;31019;43.780;25.948;2024-01-11T00:15:27;102514.25;;;-9.83;100.00
45275;BME280;31019;43.780;25.948;2024-01-11T00:17:54;102514.06;;;-9.75;100.00
45275;BME280;31019;43.780;25.948;2024-01-11T00:20:22;102514.56;;;-9.98;100.00
45275;BME280;31019;43.780;25.948;2024-01-11T00:22:49;102503.00;;;-9.79;100.00
45275;BME280;31019;43.780;25.948;2024-01-11T00:25:17;102505.31;;;-9.65;100.00
45275;BME280;31019;43.780;25.948;2024-01-11T00:27:44;102498.75;;;-9.41;100.00
45275;BME280;31019;43.780;25.948;2024-01-11T00:30:11;102502.41;;;-9.50;100.00
45275;BME280;31019;43.780;25.948;2024-01-11T00:32:37;102488.59;;;-9.47;100.00
45275;BME280;31019;43.780;25.948;2024-01-11T00:35:05;102500.00;;;-9.20;100.00
45275;BME280;31019;43.780;25.948;2024-01-11T00:37:35;102489.97;;;-9.31;100.00
45275;BME280;31019;43.780;25.948;2024-01-11T00:40:03;102495.69;;;-9.18;100.00
45275;BME280;31019;43.780;25.948;2024-01-11T00:42:30;102487.34;;;-9.29;100.00
45275;BME280;31019;43.780;25.948;2024-01-11T00:44:57;102488.28;;;-9.32;100.00
45275;BME280;31019;43.780;25.948;2024-01-11T00:47:24;102490.00;;;-9.32;100.00
45275;BME280;31019;43.780;25.948;2024-01-11T00:49:51;102488.28;;;-9.32;100.00
45275;BME280;31019;43.780;25.948;2024-01-11T00:52:19;102473.09;;;-9.44;100.00
45275;BME280;31019;43.780;25.948;2024-01-11T00:54:48;102468.97;;;-9.51;100.00
45275;BME280;31019;43.780;25.948;2024-01-11T00:57:14;102466.41;;;-9.92;100.00
45275;BME280;31019;43.780;25.948;2024-01-11T00:59:41;102467.22;;;-9.89;100.00
45275;BME280;31019;43.780;25.948;2024-01-11T01:02:11;102468.09;;;-9.91;100.00
45275;BME280;31019;43.780;25.948;2024-01-11T01:04:41;102470.84;;;-9.98;100.00
45275;BME280;31019;43.780;25.948;2024-01-11T01:07:07;102469.66;;;-9.82;100.00
45275;BME280;31019;43.780;25.948;2024-01-11T01:09:35;102469.59;;;-9.80;100.00
45275;BME280;31019;43.780;25.948;2024-01-11T01:12:04;102468.88;;;-9.85;100.00
45275;BME280;31019;43.780;25.948;2024-01-11T01:14:31;102472.97;;;-9.77;100.00
45275;BME280;31019;43.780;25.948;2024-01-11T01:16:58;102466.78;;;-9.68;100.00
45275;BME280;31019;43.780;25.948;2024-01-11T01:19:25;102453.88;;;-9.65;100.00
45275;BME280;31019;43.780;25.948;2024-01-11T01:21:51;102452.84;;;-9.98;100.00
45275;BME280;31019;43.780;25.948;2024-01-11T01:24:18;102450.69;;;-10.20;100.00
45275;BME280;31019;43.780;25.948;2024-01-11T01:26:45;102437.16;;;-9.86;100.00
45275;BME280;31019;43.780;25.948;2024-01-11T01:29:14;102438.81;;;-9.83;100.00
45275;BME280;31019;43.780;25.948;2024-01-11T01:31:40;102433.50;;;-9.76;100.00
45275;BME280;31019;43.780;25.948;2024-01-11T01:34:07;102429.41;;;-9.84;100.00
45275;BME280;31019;43.780;25.948;2024-01-11T01:36:34;102431.84;;;-9.78;100.00
45275;BME280;31019;43.780;25.948;2024-01-11T01:39:01;102429.13;;;-9.71;100.00
45275;BME280;31019;43.780;25.948;2024-01-11T01:41:28;102427.34;;;-9.69;100.00
45275;BME280;31019;43.780;25.948;2024-01-11T01:43:55;102427.34;;;-9.69;100.00
45275;BME280;31019;43.780;25.948;2024-01-11T01:46:24;102431.22;;;-9.89;100.00
45275;BME280;31019;43.780;25.948;2024-01-11T01:48:52;102424.75;;;-9.69;100.00
45275;BME280;31019;43.780;25.948;2024-01-11T01:51:20;102417.91;;;-9.68;100.00
45275;BME280;31019;43.780;25.948;2024-01-11T01:53:48;102417.72;;;-9.59;100.00
45275;BME280;31019;43.780;25.948;2024-01-11T01:56:17;102414.06;;;-9.50;100.00
45275;BME280;31019;43.780;25.948;2024-01-11T01:58:45;102418.03;;;-9.74;100.00
45275;BME280;31019;43.780;25.948;2024-01-11T02:01:12;102417.28;;;-9.40;100.00
45275;BME280;31019;43.780;25.948;2024-01-11T02:03:43;102411.09;;;-9.33;100.00
45275;BME280;31019;43.780;25.948;2024-01-11T02:06:11;102398.53;;;-9.46;100.00
45275;BME280;31019;43.780;25.948;2024-01-11T02:08:38;102395.34;;;-9.57;100.00
45275;BME280;31019;43.780;25.948;2024-01-11T02:11:07;102391.88;;;-9.54;100.00
45275;BME280;31019;43.780;25.948;2024-01-11T02:13:34;102394.22;;;-9.45;100.00
45275;BME280;31019;43.780;25.948;2024-01-11T02:16:01;102388.22;;;-9.46;100.00
45275;BME280;31019;43.780;25.948;2024-01-11T02:18:28;102383.72;;;-9.73;100.00
45275;BME280;31019;43.780;25.948;2024-01-11T02:20:56;102375.94;;;-9.70;100.00
45275;BME280;31019;43.780;25.948;2024-01-11T02:23:24;102377.47;;;-9.63;100.00
45275;BME280;31019;43.780;25.948;2024-01-11T02:25:53;102360.25;;;-9.59;100.00
45275;BME280;31019;43.780;25.948;2024-01-11T02:28:20;102362.56;;;-9.49;100.00
45275;BME280;31019;43.780;25.948;2024-01-11T02:30:47;102363.47;;;-9.50;100.00
45275;BME280;31019;43.780;25.948;2024-01-11T02:33:14;102362.22;;;-9.35;100.00
45275;BME280;31019;43.780;25.948;2024-01-11T02:35:42;102354.78;;;-9.46;100.00
45275;BME280;31019;43.780;25.948;2024-01-11T02:38:09;102358.72;;;-9.31;100.00
45275;BME280;31019;43.780;25.948;2024-01-11T02:40:41;102354.56;;;-9.38;100.00
45275;BME280;31019;43.780;25.948;2024-01-11T02:43:10;102355.00;;;-9.20;100.00
45275;BME280;31019;43.780;25.948;2024-01-11T02:45:37;102353.19;;;-9.51;100.00
45275;BME280;31019;43.780;25.948;2024-01-11T02:48:06;102348.88;;;-9.15;100.00
45275;BME280;31019;43.780;25.948;2024-01-11T02:50:33;102348.41;;;-9.31;100.00
45275;BME280;31019;43.780;25.948;2024-01-11T02:53:00;102348.34;;;-9.28;100.00
45275;BME280;31019;43.780;25.948;2024-01-11T02:55:27;102342.50;;;-9.34;100.00
45275;BME280;31019;43.780;25.948;2024-01-11T02:57:53;102337.06;;;-9.22;100.00
45275;BME280;31019;43.780;25.948;2024-01-11T03:00:21;102340.56;;;-9.26;100.00
45275;BME280;31019;43.780;25.948;2024-01-11T03:02:48;102346.75;;;-9.33;100.00
45275;BME280;31019;43.780;25.948;2024-01-11T03:05:15;102336.72;;;-9.44;100.00
45275;BME280;31019;43.780;25.948;2024-01-11T03:07:42;102339.66;;;-9.24;100.00
45275;BME280;31019;43.780;25.948;2024-01-11T03:10:09;102338.13;;;-9.31;100.00
45275;BME280;31019;43.780;25.948;2024-01-11T03:12:36;102329.72;;;-9.37;100.00
45275;BME280;31019;43.780;25.948;2024-01-11T03:15:03;102332.09;;;-9.30;100.00
45275;BME280;31019;43.780;25.948;2024-01-11T03:17:32;102325.75;;;-9.16;100.00
45275;BME280;31019;43.780;25.948;2024-01-11T03:19:59;102329.50;;;-9.30;100.00
45275;BME280;31019;43.780;25.948;2024-01-11T03:22:26;102329.31;;;-9.22;100.00
45275;BME280;31019;43.780;25.948;2024-01-11T03:24:53;102323.19;;;-9.18;100.00
45275;BME280;31019;43.780;25.948;2024-01-11T03:27:20;102312.81;;;-9.13;100.00
45275;BME280;31019;43.780;25.948;2024-01-11T03:29:46;102312.38;;;-9.31;100.00
45275;BME280;31019;43.780;25.948;2024-01-11T03:32:14;102310.56;;;-9.27;100.00
45275;BME280;31019;43.780;25.948;2024-01-11T03:34:45;102297.53;;;-9.19;100.00
45275;BME280;31019;43.780;25.948;2024-01-11T03:37:12;102300.78;;;-9.14;100.00
45275;BME280;31019;43.780;25.948;2024-01-11T03:39:39;102300.81;;;-9.49;100.00
45275;BME280;31019;43.780;25.948;2024-01-11T03:42:06;102286.34;;;-9.20;100.00
45275;BME280;31019;43.780;25.948;2024-01-11T03:44:33;102288.72;;;-9.45;100.00
45275;BME280;31019;43.780;25.948;2024-01-11T03:46:59;102288.16;;;-9.24;100.00
45275;BME280;31019;43.780;25.948;2024-01-11T03:49:26;102283.19;;;-9.30;100.00
45275;BME280;31019;43.780;25.948;2024-01-11T03:51:55;102285.72;;;-9.28;100.00
45275;BME280;31019;43.780;25.948;2024-01-11T03:54:22;102281.75;;;-9.40;100.00
45275;BME280;31019;43.780;25.948;2024-01-11T03:56:52;102279.13;;;-9.38;100.00
45275;BME280;31019;43.780;25.948;2024-01-11T03:59:19;102273.53;;;-9.22;100.00
45275;BME280;31019;43.780;25.948;2024-01-11T04:01:46;102269.53;;;-9.32;100.00
45275;BME280;31019;43.780;25.948;2024-01-11T04:04:13;102258.25;;;-9.28;100.00
45275;BME280;31019;43.780;25.948;2024-01-11T04:06:40;102252.34;;;-9.31;100.00
45275;BME280;31019;43.780;25.948;2024-01-11T04:09:11;102248.63;;;-9.21;100.00
45275;BME280;31019;43.780;25.948;2024-01-11T04:11:37;102248.31;;;-9.09;100.00
45275;BME280;31019;43.780;25.948;2024-01-11T04:14:04;102247.09;;;-8.95;100.00
45275;BME280;31019;43.780;25.948;2024-01-11T04:16:32;102244.16;;;-8.83;100.00
45275;BME280;31019;43.780;25.948;2024-01-11T04:18:59;102240.63;;;-8.81;100.00
45275;BME280;31019;43.780;25.948;2024-01-11T04:21:26;102245.69;;;-8.78;100.00
45275;BME280;31019;43.780;25.948;2024-01-11T04:23:54;102237.94;;;-8.76;100.00
45275;BME280;31019;43.780;25.948;2024-01-11T04:26:22;102232.78;;;-8.76;100.00
45275;BME280;31019;43.780;25.948;2024-01-11T04:28:51;102238.16;;;-8.84;100.00
45275;BME280;31019;43.780;25.948;2024-01-11T04:31:18;102240.59;;;-8.79;100.00
45275;BME280;31019;43.780;25.948;2024-01-11T04:33:45;102239.34;;;-8.66;100.00
45275;BME280;31019;43.780;25.948;2024-01-11T04:36:12;102229.34;;;-9.06;100.00
45275;BME280;31019;43.780;25.948;2024-01-11T04:38:40;102239.03;;;-8.83;100.00
45275;BME280;31019;43.780;25.948;2024-01-11T04:41:07;102234.88;;;-8.89;100.00
45275;BME280;31019;43.780;25.948;2024-01-11T04:43:37;102224.91;;;-8.71;100.00
45275;BME280;31019;43.780;25.948;2024-01-11T04:46:12;102227.47;;;-8.70;100.00
45275;BME280;31019;43.780;25.948;2024-01-11T04:48:39;102229.31;;;-8.75;100.00
45275;BME280;31019;43.780;25.948;2024-01-11T04:51:06;102227.50;;;-8.71;100.00
45275;BME280;31019;43.780;25.948;2024-01-11T04:53:33;102226.41;;;-8.92;100.00
45275;BME280;31019;43.780;25.948;2024-01-11T04:56:02;102224.06;;;-8.72;100.00
45275;BME280;31019;43.780;25.948;2024-01-11T04:58:29;102224.53;;;0.88;100.00
45275;BME280;31019;43.780;25.948;2024-01-11T05:00:57;102223.94;;;-5.78;100.00
45275;BME280;31019;43.780;25.948;2024-01-11T05:03:24;102218.03;;;-7.90;100.00
45275;BME280;31019;43.780;25.948;2024-01-11T05:05:51;102219.56;;;-8.37;100.00
45275;BME280;31019;43.780;25.948;2024-01-11T05:08:18;102217.81;;;-8.63;100.00
45275;BME280;31019;43.780;25.948;2024-01-11T05:10:45;102223.81;;;-8.63;100.00
45275;BME280;31019;43.780;25.948;2024-01-11T05:13:12;102222.66;;;-8.52;100.00
45275;BME280;31019;43.780;25.948;2024-01-11T05:15:38;102217.59;;;-8.56;100.00
45275;BME280;31019;43.780;25.948;2024-01-11T05:18:07;102223.63;;;-8.57;100.00
45275;BME280;31019;43.780;25.948;2024-01-11T05:20:36;102218.19;;;-8.47;100.00
45275;BME280;31019;43.780;25.948;2024-01-11T05:23:03;102227.66;;;-8.48;100.00
45275;BME280;31019;43.780;25.948;2024-01-11T05:25:30;102223.31;;;-8.46;100.00
45275;BME280;31019;43.780;25.948;2024-01-11T05:27:59;102220.81;;;-8.49;100.00
45275;BME280;31019;43.780;25.948;2024-01-11T05:30:26;102219.38;;;-8.31;100.00
45275;BME280;31019;43.780;25.948;2024-01-11T05:32:53;102225.13;;;-8.49;100.00
45275;BME280;31019;43.780;25.948;2024-01-11T05:35:21;102226.19;;;-8.28;100.00
45275;BME280;31019;43.780;25.948;2024-01-11T05:37:49;102224.53;;;-8.31;100.00
45275;BME280;31019;43.780;25.948;2024-01-11T05:40:16;102213.09;;;-8.22;100.00
45275;BME280;31019;43.780;25.948;2024-01-11T05:42:43;102212.69;;;-8.37;100.00
45275;BME280;31019;43.780;25.948;2024-01-11T05:45:10;102208.66;;;-8.44;100.00
45275;BME280;31019;43.780;25.948;2024-01-11T05:47:36;102214.66;;;-8.45;100.00
45275;BME280;31019;43.780;25.948;2024-01-11T05:50:06;102206.44;;;-8.30;100.00
45275;BME280;31019;43.780;25.948;2024-01-11T05:52:34;102211.38;;;-8.23;100.00
45275;BME280;31019;43.780;25.948;2024-01-11T05:55:01;102203.28;;;-8.38;100.00
45275;BME280;31019;43.780;25.948;2024-01-11T05:57:28;102207.44;;;-8.07;100.00
45275;BME280;31019;43.780;25.948;2024-01-11T05:59:55;102204.06;;;-8.09;100.00
45275;BME280;31019;43.780;25.948;2024-01-11T06:02:21;102200.97;;;-8.20;100.00
45275;BME280;31019;43.780;25.948;2024-01-11T06:04:49;102194.38;;;-8.29;100.00
45275;BME280;31019;43.780;25.948;2024-01-11T06:07:17;102197.25;;;-8.10;100.00
45275;BME280;31019;43.780;25.948;2024-01-11T06:09:46;102197.38;;;-7.88;100.00
45275;BME280;31019;43.780;25.948;2024-01-11T06:12:12;102192.50;;;-7.97;100.00
45275;BME280;31019;43.780;25.948;2024-01-11T06:14:39;102203.63;;;-7.95;100.00
45275;BME280;31019;43.780;25.948;2024-01-11T06:17:06;102198.81;;;-7.79;100.00
45275;BME280;31019;43.780;25.948;2024-01-11T06:19:36;102202.13;;;-8.02;100.00
45275;BME280;31019;43.780;25.948;2024-01-11T06:22:05;102203.31;;;-7.86;100.00
45275;BME280;31019;43.780;25.948;2024-01-11T06:24:32;102197.59;;;-7.69;100.00
45275;BME280;31019;43.780;25.948;2024-01-11T06:27:00;102200.38;;;-7.50;100.00
45275;BME280;31019;43.780;25.948;2024-01-11T06:29:27;102197.06;;;-7.54;100.00
45275;BME280;31019;43.780;25.948;2024-01-11T06:31:55;102194.25;;;-6.99;100.00
45275;BME280;31019;43.780;25.948;2024-01-11T06:34:21;102201.00;;;-6.28;100.00
45275;BME280;31019;43.780;25.948;2024-01-11T06:36:48;102196.75;;;-5.67;100.00
45275;BME280;31019;43.780;25.948;2024-01-11T06:39:15;102198.69;;;-5.13;100.00
45275;BME280;31019;43.780;25.948;2024-01-11T06:41:42;102198.59;;;-4.72;100.00
45275;BME280;31019;43.780;25.948;2024-01-11T06:44:10;102193.59;;;-4.57;100.00
45275;BME280;31019;43.780;25.948;2024-01-11T06:46:37;102191.53;;;-4.32;100.00
45275;BME280;31019;43.780;25.948;2024-01-11T06:49:06;102200.72;;;-4.07;100.00
45275;BME280;31019;43.780;25.948;2024-01-11T06:51:35;102201.19;;;-3.82;100.00
45275;BME280;31019;43.780;25.948;2024-01-11T06:54:02;102194.69;;;-3.73;100.00
45275;BME280;31019;43.780;25.948;2024-01-11T06:56:29;102190.47;;;-3.76;100.00
45275;BME280;31019;43.780;25.948;2024-01-11T06:58:56;102188.72;;;-3.75;100.00
45275;BME280;31019;43.780;25.948;2024-01-11T07:01:25;102194.00;;;-3.59;100.00
45275;BME280;31019;43.780;25.948;2024-01-11T07:03:52;102198.34;;;-3.95;100.00
45275;BME280;31019;43.780;25.948;2024-01-11T07:06:19;102187.22;;;-4.33;100.00
45275;BME280;31019;43.780;25.948;2024-01-11T07:08:46;102181.72;;;-4.80;100.00
45275;BME280;31019;43.780;25.948;2024-01-11T07:11:13;102182.31;;;-4.75;100.00
45275;BME280;31019;43.780;25.948;2024-01-11T07:13:39;102183.06;;;-4.35;100.00
45275;BME280;31019;43.780;25.948;2024-01-11T07:16:06;102184.00;;;-4.02;100.00
45275;BME280;31019;43.780;25.948;2024-01-11T07:18:34;102177.56;;;-4.85;100.00
45275;BME280;31019;43.780;25.948;2024-01-11T07:21:01;102176.88;;;-4.88;100.00
45275;BME280;31019;43.780;25.948;2024-01-11T07:23:29;102178.84;;;-5.33;100.00
45275;BME280;31019;43.780;25.948;2024-01-11T07:25:55;102182.53;;;-4.61;100.00
45275;BME280;31019;43.780;25.948;2024-01-11T07:28:24;102181.91;;;-5.04;100.00
45275;BME280;31019;43.780;25.948;2024-01-11T07:30:51;102179.78;;;-4.22;100.00
45275;BME280;31019;43.780;25.948;2024-01-11T07:33:18;102193.72;;;-4.05;100.00
45275;BME280;31019;43.780;25.948;2024-01-11T07:35:47;102177.28;;;-2.89;100.00
45275;BME280;31019;43.780;25.948;2024-01-11T07:38:14;102178.56;;;-2.18;100.00
45275;BME280;31019;43.780;25.948;2024-01-11T07:40:41;102175.91;;;-3.12;100.00
45275;BME280;31019;43.780;25.948;2024-01-11T07:43:08;102174.97;;;-4.29;100.00
45275;BME280;31019;43.780;25.948;2024-01-11T07:45:35;102169.56;;;-3.06;100.00
45275;BME280;31019;43.780;25.948;2024-01-11T07:48:02;102161.44;;;-1.05;100.00
45275;BME280;31019;43.780;25.948;2024-01-11T07:50:30;102172.94;;;-2.88;100.00
45275;BME280;31019;43.780;25.948;2024-01-11T07:52:59;102165.63;;;-2.04;100.00
45275;BME280;31019;43.780;25.948;2024-01-11T07:55:26;102157.97;;;-1.77;100.00
45275;BME280;31019;43.780;25.948;2024-01-11T07:57:53;102151.25;;;-1.81;100.00
45275;BME280;31019;43.780;25.948;2024-01-11T08:00:20;102148.38;;;-1.33;100.00
45275;BME280;31019;43.780;25.948;2024-01-11T08:02:47;102137.25;;;-3.18;100.00
45275;BME280;31019;43.780;25.948;2024-01-11T08:05:14;102139.09;;;-1.23;100.00
45275;BME280;31019;43.780;25.948;2024-01-11T08:07:41;102133.81;;;-0.13;100.00
45275;BME280;31019;43.780;25.948;2024-01-11T08:10:12;102129.53;;;0.88;100.00
45275;BME280;31019;43.780;25.948;2024-01-11T08:12:39;102121.81;;;0.48;100.00
45275;BME280;31019;43.780;25.948;2024-01-11T08:15:06;102126.94;;;-0.02;100.00
45275;BME280;31019;43.780;25.948;2024-01-11T08:17:36;102125.22;;;1.48;100.00
45275;BME280;31019;43.780;25.948;2024-01-11T08:20:04;102129.31;;;-0.24;100.00
45275;BME280;31019;43.780;25.948;2024-01-11T08:22:33;102121.81;;;-0.03;100.00
45275;BME280;31019;43.780;25.948;2024-01-11T08:25:01;102116.66;;;1.22;100.00
45275;BME280;31019;43.780;25.948;2024-01-11T08:27:31;102117.25;;;2.31;100.00
45275;BME280;31019;43.780;25.948;2024-01-11T08:29:58;102113.34;;;-0.07;100.00
45275;BME280;31019;43.780;25.948;2024-01-11T08:32:25;102110.22;;;-1.34;100.00
45275;BME280;31019;43.780;25.948;2024-01-11T08:34:52;102116.97;;;-1.03;100.00
45275;BME280;31019;43.780;25.948;2024-01-11T08:37:19;102106.19;;;0.72;100.00
45275;BME280;31019;43.780;25.948;2024-01-11T08:39:46;102101.31;;;0.67;100.00
45275;BME280;31019;43.780;25.948;2024-01-11T08:42:14;102105.38;;;-0.58;100.00
45275;BME280;31019;43.780;25.948;2024-01-11T08:44:42;102105.03;;;-1.34;100.00
45275;BME280;31019;43.780;25.948;2024-01-11T08:47:09;102086.28;;;-0.06;100.00
45275;BME280;31019;43.780;25.948;2024-01-11T08:49:38;102094.91;;;-0.31;100.00
45275;BME280;31019;43.780;25.948;2024-01-11T08:52:05;102083.84;;;-0.34;100.00
45275;BME280;31019;43.780;25.948;2024-01-11T08:54:33;102092.16;;;0.11;100.00
45275;BME280;31019;43.780;25.948;2024-01-11T08:57:00;102086.38;;;-0.07;100.00
45275;BME280;31019;43.780;25.948;2024-01-11T08:59:27;102081.44;;;1.02;100.00
45275;BME280;31019;43.780;25.948;2024-01-11T09:01:56;102072.28;;;-1.96;100.00
45275;BME280;31019;43.780;25.948;2024-01-11T09:04:22;102080.00;;;-0.96;100.00
45275;BME280;31019;43.780;25.948;2024-01-11T09:06:49;102072.34;;;-0.44;100.00
45275;BME280;31019;43.780;25.948;2024-01-11T09:09:16;102068.84;;;-0.18;100.00
45275;BME280;31019;43.780;25.948;2024-01-11T09:11:43;102064.72;;;-0.48;100.00
45275;BME280;31019;43.780;25.948;2024-01-11T09:14:10;102052.63;;;1.50;100.00
45275;BME280;31019;43.780;25.948;2024-01-11T09:16:40;102048.78;;;0.71;100.00
45275;BME280;31019;43.780;25.948;2024-01-11T09:19:09;102048.00;;;0.81;100.00
45275;BME280;31019;43.780;25.948;2024-01-11T09:21:36;102036.94;;;0.28;100.00
45275;BME280;31019;43.780;25.948;2024-01-11T09:24:03;102036.19;;;1.12;100.00
45275;BME280;31019;43.780;25.948;2024-01-11T09:26:30;102026.53;;;1.95;100.00
45275;BME280;31019;43.780;25.948;2024-01-11T09:28:57;102013.44;;;2.06;100.00
45275;BME280;31019;43.780;25.948;2024-01-11T09:31:24;102008.09;;;1.14;100.00
45275;BME280;31019;43.780;25.948;2024-01-11T09:33:51;102006.63;;;2.15;100.00
45275;BME280;31019;43.780;25.948;2024-01-11T09:36:19;102001.47;;;1.68;100.00
45275;BME280;31019;43.780;25.948;2024-01-11T09:38:46;102004.97;;;2.36;100.00
45275;BME280;31019;43.780;25.948;2024-01-11T09:41:14;101987.50;;;1.45;100.00
45275;BME280;31019;43.780;25.948;2024-01-11T09:43:41;101978.84;;;1.78;100.00
45275;BME280;31019;43.780;25.948;2024-01-11T09:46:10;101967.94;;;0.91;100.00
45275;BME280;31019;43.780;25.948;2024-01-11T09:48:39;101974.94;;;2.18;100.00
45275;BME280;31019;43.780;25.948;2024-01-11T09:51:09;101978.34;;;2.52;100.00
45275;BME280;31019;43.780;25.948;2024-01-11T09:53:38;101972.78;;;2.12;100.00
45275;BME280;31019;43.780;25.948;2024-01-11T09:56:08;101976.47;;;2.20;100.00
45275;BME280;31019;43.780;25.948;2024-01-11T09:58:36;101974.31;;;1.69;100.00
45275;BME280;31019;43.780;25.948;2024-01-11T10:01:06;101967.75;;;3.18;100.00
45275;BME280;31019;43.780;25.948;2024-01-11T10:03:34;101963.13;;;0.37;100.00
45275;BME280;31019;43.780;25.948;2024-01-11T10:06:02;101963.63;;;1.83;100.00
45275;BME280;31019;43.780;25.948;2024-01-11T10:08:30;101945.50;;;1.47;100.00
45275;BME280;31019;43.780;25.948;2024-01-11T10:10:59;101939.22;;;0.31;100.00
45275;BME280;31019;43.780;25.948;2024-01-11T10:13:27;101930.25;;;1.41;100.00
45275;BME280;31019;43.780;25.948;2024-01-11T10:16:05;101924.19;;;3.98;100.00
45275;BME280;31019;43.780;25.948;2024-01-11T10:18:33;101918.28;;;1.14;100.00
45275;BME280;31019;43.780;25.948;2024-01-11T10:21:00;101918.00;;;2.09;100.00
45275;BME280;31019;43.780;25.948;2024-01-11T10:23:26;101910.69;;;4.12;100.00
45275;BME280;31019;43.780;25.948;2024-01-11T10:25:56;101913.97;;;1.71;100.00
45275;BME280;31019;43.780;25.948;2024-01-11T10:28:25;101908.13;;;2.01;100.00
45275;BME280;31019;43.780;25.948;2024-01-11T10:30:52;101905.13;;;3.65;100.00
45275;BME280;31019;43.780;25.948;2024-01-11T10:33:20;101901.31;;;2.10;100.00
45275;BME280;31019;43.780;25.948;2024-01-11T10:35:47;101892.66;;;3.06;100.00
45275;BME280;31019;43.780;25.948;2024-01-11T10:38:15;101894.97;;;5.56;100.00
45275;BME280;31019;43.780;25.948;2024-01-11T10:40:43;101880.69;;;3.43;100.00
45275;BME280;31019;43.780;25.948;2024-01-11T10:43:11;101877.97;;;3.03;100.00
45275;BME280;31019;43.780;25.948;2024-01-11T10:45:44;101874.16;;;2.11;100.00
45275;BME280;31019;43.780;25.948;2024-01-11T10:48:14;101864.50;;;3.17;100.00
45275;BME280;31019;43.780;25.948;2024-01-11T10:50:43;101856.41;;;2.46;100.00
45275;BME280;31019;43.780;25.948;2024-01-11T10:53:18;101851.75;;;3.64;100.00
45275;BME280;31019;43.780;25.948;2024-01-11T10:55:50;101849.63;;;3.99;100.00
45275;BME280;31019;43.780;25.948;2024-01-11T10:58:18;101845.63;;;4.14;100.00
45275;BME280;31019;43.780;25.948;2024-01-11T11:00:48;101838.03;;;4.79;100.00
45275;BME280;31019;43.780;25.948;2024-01-11T11:03:18;101838.38;;;1.21;100.00
45275;BME280;31019;43.780;25.948;2024-01-11T11:05:48;101819.22;;;4.45;100.00
45275;BME280;31019;43.780;25.948;2024-01-11T11:08:17;101812.31;;;3.24;100.00
45275;BME280;31019;43.780;25.948;2024-01-11T11:10:45;101807.41;;;4.88;100.00
45275;BME280;31019;43.780;25.948;2024-01-11T11:13:14;101806.44;;;2.27;100.00
45275;BME280;31019;43.780;25.948;2024-01-11T11:15:42;101803.09;;;4.87;100.00
45275;BME280;31019;43.780;25.948;2024-01-11T11:18:13;101795.78;;;4.90;100.00
45275;BME280;31019;43.780;25.948;2024-01-11T11:20:41;101797.50;;;3.54;100.00
45275;BME280;31019;43.780;25.948;2024-01-11T11:23:10;101793.78;;;5.12;100.00
45275;BME280;31019;43.780;25.948;2024-01-11T11:25:38;101783.75;;;3.00;100.00
45275;BME280;31019;43.780;25.948;2024-01-11T11:28:06;101785.09;;;2.73;100.00
45275;BME280;31019;43.780;25.948;2024-01-11T11:30:37;101780.69;;;3.76;100.00
45275;BME280;31019;43.780;25.948;2024-01-11T11:33:09;101777.31;;;3.14;100.00
45275;BME280;31019;43.780;25.948;2024-01-11T11:35:37;101766.84;;;2.72;100.00
45275;BME280;31019;43.780;25.948;2024-01-11T11:38:05;101766.16;;;2.49;100.00
45275;BME280;31019;43.780;25.948;2024-01-11T11:40:33;101764.72;;;4.84;100.00
45275;BME280;31019;43.780;25.948;2024-01-11T11:43:04;101749.47;;;4.21;100.00
45275;BME280;31019;43.780;25.948;2024-01-11T11:45:32;101751.00;;;6.62;100.00
45275;BME280;31019;43.780;25.948;2024-01-11T11:47:58;101751.78;;;3.76;100.00
45275;BME280;31019;43.780;25.948;2024-01-11T11:50:26;101749.72;;;3.89;100.00
45275;BME280;31019;43.780;25.948;2024-01-11T11:52:57;101743.31;;;3.72;100.00
45275;BME280;31019;43.780;25.948;2024-01-11T11:55:24;101730.78;;;4.91;100.00
45275;BME280;31019;43.780;25.948;2024-01-11T11:57:52;101730.63;;;2.87;100.00
45275;BME280;31019;43.780;25.948;2024-01-11T12:00:19;101732.06;;;5.42;100.00
45275;BME280;31019;43.780;25.948;2024-01-11T12:02:47;101735.34;;;4.12;100.00
45275;BME280;31019;43.780;25.948;2024-01-11T12:05:14;101725.03;;;2.28;100.00
45275;BME280;31019;43.780;25.948;2024-01-11T12:07:41;101705.59;;;2.31;100.00
45275;BME280;31019;43.780;25.948;2024-01-11T12:10:09;101706.22;;;2.23;100.00
45275;BME280;31019;43.780;25.948;2024-01-11T12:12:37;101709.63;;;5.10;100.00
45275;BME280;31019;43.780;25.948;2024-01-11T12:15:06;101707.50;;;4.86;100.00
45275;BME280;31019;43.780;25.948;2024-01-11T12:17:36;101695.59;;;4.25;100.00
45275;BME280;31019;43.780;25.948;2024-01-11T12:20:06;101686.97;;;6.08;100.00
45275;BME280;31019;43.780;25.948;2024-01-11T12:22:32;101686.16;;;4.89;100.00
45275;BME280;31019;43.780;25.948;2024-01-11T12:24:59;101679.34;;;5.24;100.00
45275;BME280;31019;43.780;25.948;2024-01-11T12:27:28;101673.53;;;4.55;100.00
45275;BME280;31019;43.780;25.948;2024-01-11T12:29:55;101672.25;;;3.74;100.00
45275;BME280;31019;43.780;25.948;2024-01-11T12:32:22;101668.69;;;4.61;100.00
45275;BME280;31019;43.780;25.948;2024-01-11T12:34:49;101661.38;;;2.78;100.00